sensor_id;sensor_type;location;lat;lon;timestamp;pressure;altitude;pressure_sealevel;temperature
70050;BMP180;57391;51.306;22.680;2023-03-01T00:01:40;100817.20;;;-1.60
70050;BMP180;57391;51.306;22.680;2023-03-01T00:04:07;100813.20;;;-1.70
70050;BMP180;57391;51.306;22.680;2023-03-01T00:06:34;100819.40;;;-1.76
70050;BMP180;57391;51.306;22.680;2023-03-01T00:09:01;100827.60;;;-1.80
70050;BMP180;57391;51.306;22.680;2023-03-01T00:11:32;100826.00;;;-1.80
70050;BMP180;57391;51.306;22.680;2023-03-01T00:14:02;100821.60;;;-1.82
70050;BMP180;57391;51.306;22.680;2023-03-01T00:16:39;100810.00;;;-1.90
70050;BMP180;57391;51.306;22.680;2023-03-01T00:19:11;100813.60;;;-1.90
70050;BMP180;57391;51.306;22.680;2023-03-01T00:21:39;100812.60;;;-1.90
70050;BMP180;57391;51.306;22.680;2023-03-01T00:24:07;100809.80;;;-1.90
70050;BMP180;57391;51.306;22.680;2023-03-01T00:26:35;100808.40;;;-1.90
70050;BMP180;57391;51.306;22.680;2023-03-01T00:29:03;100801.60;;;-1.90
70050;BMP180;57391;51.306;22.680;2023-03-01T00:31:32;100798.20;;;-1.90
70050;BMP180;57391;51.306;22.680;2023-03-01T00:34:04;100788.20;;;-1.90
70050;BMP180;57391;51.306;22.680;2023-03-01T00:36:35;100784.60;;;-1.80
70050;BMP180;57391;51.306;22.680;2023-03-01T00:39:05;100786.80;;;-1.78
70050;BMP180;57391;51.306;22.680;2023-03-01T00:41:33;100784.60;;;-1.70
70050;BMP180;57391;51.306;22.680;2023-03-01T00:44:02;100782.00;;;-1.70
70050;BMP180;57391;51.306;22.680;2023-03-01T00:46:29;100783.80;;;-1.66
70050;BMP180;57391;51.306;22.680;2023-03-01T00:48:57;100788.00;;;-1.60
70050;BMP180;57391;51.306;22.680;2023-03-01T00:51:27;100781.20;;;-1.60
70050;BMP180;57391;51.306;22.680;2023-03-01T00:54:00;100780.00;;;-1.60
70050;BMP180;57391;51.306;22.680;2023-03-01T00:56:28;100782.60;;;-1.60
70050;BMP180;57391;51.306;22.680;2023-03-01T00:58:56;100779.00;;;-1.70
70050;BMP180;57391;51.306;22.680;2023-03-01T01:05:53;100772.40;;;-1.90
70050;BMP180;57391;51.306;22.680;2023-03-01T01:08:21;100773.20;;;-2.00
70050;BMP180;57391;51.306;22.680;2023-03-01T01:10:48;100780.80;;;-2.00
70050;BMP180;57391;51.306;22.680;2023-03-01T01:13:15;100776.80;;;-2.00
70050;BMP180;57391;51.306;22.680;2023-03-01T01:15:42;100777.80;;;-2.00
70050;BMP180;57391;51.306;22.680;2023-03-01T01:18:10;100780.60;;;-2.00
70050;BMP180;57391;51.306;22.680;2023-03-01T01:20:37;100777.80;;;-2.00
70050;BMP180;57391;51.306;22.680;2023-03-01T01:23:05;100776.00;;;-1.92
70050;BMP180;57391;51.306;22.680;2023-03-01T01:25:35;100779.80;;;-1.90
70050;BMP180;57391;51.306;22.680;2023-03-01T01:28:03;100774.40;;;-1.92
70050;BMP180;57391;51.306;22.680;2023-03-01T01:30:30;100778.40;;;-1.90
70050;BMP180;57391;51.306;22.680;2023-03-01T01:32:57;100773.80;;;-1.90
70050;BMP180;57391;51.306;22.680;2023-03-01T01:35:25;100772.80;;;-1.90
70050;BMP180;57391;51.306;22.680;2023-03-01T01:37:52;100771.60;;;-1.90
70050;BMP180;57391;51.306;22.680;2023-03-01T01:40:19;100767.60;;;-1.94
70050;BMP180;57391;51.306;22.680;2023-03-01T01:42:46;100765.20;;;-1.90
70050;BMP180;57391;51.306;22.680;2023-03-01T01:45:35;100765.20;;;-1.90
70050;BMP180;57391;51.306;22.680;2023-03-01T01:48:10;100756.20;;;-1.90
70050;BMP180;57391;51.306;22.680;2023-03-01T01:50:40;100756.60;;;-2.00
70050;BMP180;57391;51.306;22.680;2023-03-01T01:53:18;100755.40;;;-2.00
70050;BMP180;57391;51.306;22.680;2023-03-01T01:55:58;100745.80;;;-1.96
70050;BMP180;57391;51.306;22.680;2023-03-01T01:58:30;100742.20;;;-1.90
70050;BMP180;57391;51.306;22.680;2023-03-01T02:00:57;100739.00;;;-1.92
70050;BMP180;57391;51.306;22.680;2023-03-01T02:03:32;100740.60;;;-2.00
70050;BMP180;57391;51.306;22.680;2023-03-01T02:06:12;100733.60;;;-2.00
70050;BMP180;57391;51.306;22.680;2023-03-01T02:08:44;100723.40;;;-2.10
70050;BMP180;57391;51.306;22.680;2023-03-01T02:11:13;100717.20;;;-2.10
70050;BMP180;57391;51.306;22.680;2023-03-01T02:13:44;100706.80;;;-2.10
70050;BMP180;57391;51.306;22.680;2023-03-01T02:16:15;100706.40;;;-2.10
70050;BMP180;57391;51.306;22.680;2023-03-01T02:18:42;100712.40;;;-2.10
70050;BMP180;57391;51.306;22.680;2023-03-01T02:27:23;100721.60;;;-2.20
70050;BMP180;57391;51.306;22.680;2023-03-01T02:29:54;100724.20;;;-2.20
70050;BMP180;57391;51.306;22.680;2023-03-01T02:32:22;100721.20;;;-2.20
70050;BMP180;57391;51.306;22.680;2023-03-01T02:34:54;100723.60;;;-2.20
70050;BMP180;57391;51.306;22.680;2023-03-01T02:37:24;100717.00;;;-2.30
70050;BMP180;57391;51.306;22.680;2023-03-01T02:39:59;100717.80;;;-2.30
70050;BMP180;57391;51.306;22.680;2023-03-01T02:42:47;100716.20;;;-2.30
70050;BMP180;57391;51.306;22.680;2023-03-01T02:45:16;100717.80;;;-2.30
70050;BMP180;57391;51.306;22.680;2023-03-01T02:47:43;100718.40;;;-2.30
70050;BMP180;57391;51.306;22.680;2023-03-01T02:53:06;100724.20;;;-2.30
70050;BMP180;57391;51.306;22.680;2023-03-01T02:55:36;100733.20;;;-2.30
70050;BMP180;57391;51.306;22.680;2023-03-01T02:58:04;100725.40;;;-2.30
70050;BMP180;57391;51.306;22.680;2023-03-01T03:00:38;100714.60;;;-2.30
70050;BMP180;57391;51.306;22.680;2023-03-01T03:03:16;100706.60;;;-2.30
70050;BMP180;57391;51.306;22.680;2023-03-01T03:05:43;100708.60;;;-2.30
70050;BMP180;57391;51.306;22.680;2023-03-01T03:08:11;100702.00;;;-2.30
70050;BMP180;57391;51.306;22.680;2023-03-01T03:10:41;100703.60;;;-2.30
70050;BMP180;57391;51.306;22.680;2023-03-01T03:13:13;100698.20;;;-2.26
70050;BMP180;57391;51.306;22.680;2023-03-01T03:15:42;100697.00;;;-2.26
70050;BMP180;57391;51.306;22.680;2023-03-01T03:18:16;100693.80;;;-2.26
70050;BMP180;57391;51.306;22.680;2023-03-01T03:20:44;100690.40;;;-2.30
70050;BMP180;57391;51.306;22.680;2023-03-01T03:23:12;100687.60;;;-2.28
70050;BMP180;57391;51.306;22.680;2023-03-01T03:25:39;100689.20;;;-2.22
70050;BMP180;57391;51.306;22.680;2023-03-01T03:28:07;100685.80;;;-2.20
70050;BMP180;57391;51.306;22.680;2023-03-01T03:30:40;100677.40;;;-2.20
70050;BMP180;57391;51.306;22.680;2023-03-01T03:33:09;100671.80;;;-2.20
70050;BMP180;57391;51.306;22.680;2023-03-01T03:35:46;100672.00;;;-2.20
70050;BMP180;57391;51.306;22.680;2023-03-01T03:38:16;100673.00;;;-2.20
70050;BMP180;57391;51.306;22.680;2023-03-01T03:40:52;100680.80;;;-2.20
70050;BMP180;57391;51.306;22.680;2023-03-01T03:43:33;100682.00;;;-2.10
70050;BMP180;57391;51.306;22.680;2023-03-01T03:46:02;100682.60;;;-2.10
70050;BMP180;57391;51.306;22.680;2023-03-01T03:48:35;100675.40;;;-2.10
70050;BMP180;57391;51.306;22.680;2023-03-01T03:51:03;100673.60;;;-2.10
70050;BMP180;57391;51.306;22.680;2023-03-01T03:53:33;100676.40;;;-2.10
70050;BMP180;57391;51.306;22.680;2023-03-01T03:56:00;100665.40;;;-2.08
70050;BMP180;57391;51.306;22.680;2023-03-01T03:58:27;100669.00;;;-2.10
70050;BMP180;57391;51.306;22.680;2023-03-01T04:00:57;100660.20;;;-2.10
70050;BMP180;57391;51.306;22.680;2023-03-01T04:03:27;100653.80;;;-2.08
70050;BMP180;57391;51.306;22.680;2023-03-01T04:05:56;100662.80;;;-2.00
70050;BMP180;57391;51.306;22.680;2023-03-01T04:08:23;100662.60;;;-2.00
70050;BMP180;57391;51.306;22.680;2023-03-01T04:10:58;100660.40;;;-2.00
70050;BMP180;57391;51.306;22.680;2023-03-01T04:13:26;100660.20;;;-1.96
70050;BMP180;57391;51.306;22.680;2023-03-01T04:15:54;100657.80;;;-1.90
70050;BMP180;57391;51.306;22.680;2023-03-01T04:18:23;100651.40;;;-1.90
70050;BMP180;57391;51.306;22.680;2023-03-01T04:20:53;100654.20;;;-1.90
70050;BMP180;57391;51.306;22.680;2023-03-01T04:23:22;100657.80;;;-1.90
70050;BMP180;57391;51.306;22.680;2023-03-01T04:25:53;100651.40;;;-1.90
70050;BMP180;57391;51.306;22.680;2023-03-01T04:28:37;100652.20;;;-1.90
70050;BMP180;57391;51.306;22.680;2023-03-01T04:31:12;100658.00;;;-1.94
70050;BMP180;57391;51.306;22.680;2023-03-01T04:34:00;100648.60;;;-1.90
70050;BMP180;57391;51.306;22.680;2023-03-01T04:36:28;100645.00;;;-1.96
70050;BMP180;57391;51.306;22.680;2023-03-01T04:38:56;100632.80;;;-1.98
70050;BMP180;57391;51.306;22.680;2023-03-01T04:41:24;100635.40;;;-2.00
70050;BMP180;57391;51.306;22.680;2023-03-01T04:43:52;100630.20;;;-2.00
70050;BMP180;57391;51.306;22.680;2023-03-01T04:46:20;100625.80;;;-2.00
70050;BMP180;57391;51.306;22.680;2023-03-01T04:48:48;100627.00;;;-2.00
70050;BMP180;57391;51.306;22.680;2023-03-01T04:51:16;100633.60;;;-2.00
70050;BMP180;57391;51.306;22.680;2023-03-01T04:53:45;100636.80;;;-2.00
70050;BMP180;57391;51.306;22.680;2023-03-01T04:56:13;100641.20;;;-1.98
70050;BMP180;57391;51.306;22.680;2023-03-01T04:58:42;100655.60;;;-2.00
70050;BMP180;57391;51.306;22.680;2023-03-01T05:01:17;100658.00;;;-2.00
70050;BMP180;57391;51.306;22.680;2023-03-01T05:03:50;100660.00;;;-2.00
70050;BMP180;57391;51.306;22.680;2023-03-01T05:06:20;100658.20;;;-2.00
70050;BMP180;57391;51.306;22.680;2023-03-01T05:08:48;100647.60;;;-2.00
70050;BMP180;57391;51.306;22.680;2023-03-01T05:11:15;100655.00;;;-2.00
70050;BMP180;57391;51.306;22.680;2023-03-01T05:13:42;100650.00;;;-2.00
70050;BMP180;57391;51.306;22.680;2023-03-01T05:16:10;100640.60;;;-2.00
70050;BMP180;57391;51.306;22.680;2023-03-01T05:18:39;100639.00;;;-2.00
70050;BMP180;57391;51.306;22.680;2023-03-01T05:21:11;100625.60;;;-2.00
70050;BMP180;57391;51.306;22.680;2023-03-01T05:23:39;100622.00;;;-2.00
70050;BMP180;57391;51.306;22.680;2023-03-01T05:26:08;100626.60;;;-2.00
70050;BMP180;57391;51.306;22.680;2023-03-01T05:28:36;100626.00;;;-2.00
70050;BMP180;57391;51.306;22.680;2023-03-01T05:31:04;100624.00;;;-1.90
70050;BMP180;57391;51.306;22.680;2023-03-01T05:33:40;100627.00;;;-1.90
70050;BMP180;57391;51.306;22.680;2023-03-01T05:36:09;100635.40;;;-1.90
70050;BMP180;57391;51.306;22.680;2023-03-01T05:38:39;100641.00;;;-1.90
70050;BMP180;57391;51.306;22.680;2023-03-01T05:41:14;100642.60;;;-1.90
70050;BMP180;57391;51.306;22.680;2023-03-01T05:43:43;100653.40;;;-1.80
70050;BMP180;57391;51.306;22.680;2023-03-01T05:46:11;100653.80;;;-1.70
70050;BMP180;57391;51.306;22.680;2023-03-01T05:48:40;100654.60;;;-1.52
70050;BMP180;57391;51.306;22.680;2023-03-01T05:51:07;100657.00;;;-1.36
70050;BMP180;57391;51.306;22.680;2023-03-01T05:53:34;100654.60;;;-1.20
70050;BMP180;57391;51.306;22.680;2023-03-01T05:56:05;100654.60;;;-1.10
70050;BMP180;57391;51.306;22.680;2023-03-01T05:58:32;100662.00;;;-1.00
70050;BMP180;57391;51.306;22.680;2023-03-01T06:00:59;100660.80;;;-0.90
70050;BMP180;57391;51.306;22.680;2023-03-01T06:03:26;100661.20;;;-0.80
70050;BMP180;57391;51.306;22.680;2023-03-01T06:05:57;100665.20;;;-0.68
70050;BMP180;57391;51.306;22.680;2023-03-01T06:08:24;100671.60;;;-0.60
70050;BMP180;57391;51.306;22.680;2023-03-01T06:10:54;100666.20;;;-0.50
70050;BMP180;57391;51.306;22.680;2023-03-01T06:13:21;100669.40;;;-0.50
70050;BMP180;57391;51.306;22.680;2023-03-01T06:15:50;100668.80;;;-0.42
70050;BMP180;57391;51.306;22.680;2023-03-01T06:18:16;100661.20;;;-0.34
70050;BMP180;57391;51.306;22.680;2023-03-01T06:20:43;100664.00;;;-0.20
70050;BMP180;57391;51.306;22.680;2023-03-01T06:23:10;100667.40;;;-0.06
70050;BMP180;57391;51.306;22.680;2023-03-01T06:25:37;100660.60;;;0.10
70050;BMP180;57391;51.306;22.680;2023-03-01T06:28:05;100662.00;;;0.32
70050;BMP180;57391;51.306;22.680;2023-03-01T06:30:32;100662.20;;;0.60
70050;BMP180;57391;51.306;22.680;2023-03-01T06:32:59;100662.40;;;0.80
70050;BMP180;57391;51.306;22.680;2023-03-01T06:35:28;100664.60;;;0.98
70050;BMP180;57391;51.306;22.680;2023-03-01T06:38:00;100661.80;;;1.20
70050;BMP180;57391;51.306;22.680;2023-03-01T06:40:28;100666.40;;;1.52
70050;BMP180;57391;51.306;22.680;2023-03-01T06:42:55;100668.60;;;1.76
70050;BMP180;57391;51.306;22.680;2023-03-01T06:45:24;100667.40;;;1.96
70050;BMP180;57391;51.306;22.680;2023-03-01T06:47:51;100666.40;;;2.24
70050;BMP180;57391;51.306;22.680;2023-03-01T06:50:18;100672.00;;;2.40
70050;BMP180;57391;51.306;22.680;2023-03-01T06:52:46;100677.00;;;2.50
70050;BMP180;57391;51.306;22.680;2023-03-01T06:55:13;100681.40;;;2.50
70050;BMP180;57391;51.306;22.680;2023-03-01T06:57:40;100680.00;;;2.54
70050;BMP180;57391;51.306;22.680;2023-03-01T07:00:08;100678.40;;;2.60
70050;BMP180;57391;51.306;22.680;2023-03-01T07:02:36;100672.00;;;2.70
70050;BMP180;57391;51.306;22.680;2023-03-01T07:05:03;100668.20;;;3.00
70050;BMP180;57391;51.306;22.680;2023-03-01T07:07:31;100664.00;;;3.30
70050;BMP180;57391;51.306;22.680;2023-03-01T07:09:58;100667.20;;;3.60
70050;BMP180;57391;51.306;22.680;2023-03-01T07:12:25;100668.60;;;3.80
70050;BMP180;57391;51.306;22.680;2023-03-01T07:14:52;100669.60;;;4.00
70050;BMP180;57391;51.306;22.680;2023-03-01T07:17:19;100670.00;;;4.10
70050;BMP180;57391;51.306;22.680;2023-03-01T07:19:46;100666.00;;;4.10
70050;BMP180;57391;51.306;22.680;2023-03-01T07:22:14;100666.60;;;4.10
70050;BMP180;57391;51.306;22.680;2023-03-01T07:24:42;100667.40;;;4.20
70050;BMP180;57391;51.306;22.680;2023-03-01T07:27:10;100673.40;;;4.20
70050;BMP180;57391;51.306;22.680;2023-03-01T07:29:37;100669.80;;;4.24
70050;BMP180;57391;51.306;22.680;2023-03-01T07:32:05;100667.80;;;4.20
70050;BMP180;57391;51.306;22.680;2023-03-01T07:34:33;100677.20;;;4.30
70050;BMP180;57391;51.306;22.680;2023-03-01T07:37:00;100679.40;;;4.40
70050;BMP180;57391;51.306;22.680;2023-03-01T07:39:28;100674.00;;;4.46
70050;BMP180;57391;51.306;22.680;2023-03-01T07:41:55;100677.20;;;4.50
70050;BMP180;57391;51.306;22.680;2023-03-01T07:44:22;100681.60;;;4.60
70050;BMP180;57391;51.306;22.680;2023-03-01T07:46:50;100684.00;;;4.60
70050;BMP180;57391;51.306;22.680;2023-03-01T07:49:20;100682.60;;;4.60
70050;BMP180;57391;51.306;22.680;2023-03-01T07:51:47;100686.00;;;4.70
70050;BMP180;57391;51.306;22.680;2023-03-01T07:54:14;100688.20;;;4.70
70050;BMP180;57391;51.306;22.680;2023-03-01T07:56:42;100681.60;;;4.76
70050;BMP180;57391;51.306;22.680;2023-03-01T07:59:09;100677.40;;;4.78
70050;BMP180;57391;51.306;22.680;2023-03-01T08:01:36;100677.40;;;4.76
70050;BMP180;57391;51.306;22.680;2023-03-01T08:04:04;100673.20;;;4.80
70050;BMP180;57391;51.306;22.680;2023-03-01T08:06:35;100677.60;;;4.82
70050;BMP180;57391;51.306;22.680;2023-03-01T08:09:02;100676.20;;;4.90
70050;BMP180;57391;51.306;22.680;2023-03-01T08:11:30;100681.00;;;4.90
70050;BMP180;57391;51.306;22.680;2023-03-01T08:13:57;100679.60;;;5.00
70050;BMP180;57391;51.306;22.680;2023-03-01T08:16:24;100682.40;;;5.10
70050;BMP180;57391;51.306;22.680;2023-03-01T08:18:52;100682.20;;;5.20
70050;BMP180;57391;51.306;22.680;2023-03-01T08:21:19;100681.00;;;5.30
70050;BMP180;57391;51.306;22.680;2023-03-01T08:23:46;100681.40;;;5.44
70050;BMP180;57391;51.306;22.680;2023-03-01T08:26:17;100683.20;;;5.60
70050;BMP180;57391;51.306;22.680;2023-03-01T08:28:46;100685.80;;;5.60
70050;BMP180;57391;51.306;22.680;2023-03-01T08:33:44;100690.40;;;5.62
70050;BMP180;57391;51.306;22.680;2023-03-01T08:36:17;100685.60;;;5.70
70050;BMP180;57391;51.306;22.680;2023-03-01T08:38:45;100688.40;;;5.76
70050;BMP180;57391;51.306;22.680;2023-03-01T08:41:13;100689.40;;;5.80
70050;BMP180;57391;51.306;22.680;2023-03-01T08:43:41;100687.40;;;5.90
70050;BMP180;57391;51.306;22.680;2023-03-01T08:46:09;100694.20;;;6.00
70050;BMP180;57391;51.306;22.680;2023-03-01T08:48:42;100701.60;;;6.04
70050;BMP180;57391;51.306;22.680;2023-03-01T08:51:17;100699.60;;;6.10
70050;BMP180;57391;51.306;22.680;2023-03-01T08:53:44;100701.80;;;6.20
70050;BMP180;57391;51.306;22.680;2023-03-01T08:56:13;100701.40;;;6.22
70050;BMP180;57391;51.306;22.680;2023-03-01T08:58:45;100699.40;;;6.32
70050;BMP180;57391;51.306;22.680;2023-03-01T09:01:17;100695.80;;;6.50
70050;BMP180;57391;51.306;22.680;2023-03-01T09:03:46;100696.40;;;6.60
70050;BMP180;57391;51.306;22.680;2023-03-01T09:06:14;100692.40;;;6.70
70050;BMP180;57391;51.306;22.680;2023-03-01T09:08:47;100691.40;;;6.80
70050;BMP180;57391;51.306;22.680;2023-03-01T09:11:20;100694.80;;;6.82
70050;BMP180;57391;51.306;22.680;2023-03-01T09:13:49;100693.80;;;6.90
70050;BMP180;57391;51.306;22.680;2023-03-01T09:16:19;100694.80;;;7.00
70050;BMP180;57391;51.306;22.680;2023-03-01T09:18:53;100693.00;;;7.18
70050;BMP180;57391;51.306;22.680;2023-03-01T09:21:23;100691.40;;;7.30
70050;BMP180;57391;51.306;22.680;2023-03-01T09:23:50;100696.80;;;7.36
70050;BMP180;57391;51.306;22.680;2023-03-01T09:26:21;100690.60;;;7.40
70050;BMP180;57391;51.306;22.680;2023-03-01T09:28:52;100691.60;;;7.50
70050;BMP180;57391;51.306;22.680;2023-03-01T09:31:21;100687.40;;;7.50
70050;BMP180;57391;51.306;22.680;2023-03-01T09:33:51;100688.00;;;7.60
70050;BMP180;57391;51.306;22.680;2023-03-01T09:36:23;100690.40;;;7.62
70050;BMP180;57391;51.306;22.680;2023-03-01T09:38:52;100687.60;;;7.70
70050;BMP180;57391;51.306;22.680;2023-03-01T09:47:29;100683.40;;;7.94
70050;BMP180;57391;51.306;22.680;2023-03-01T09:50:12;100685.60;;;8.10
70050;BMP180;57391;51.306;22.680;2023-03-01T09:52:43;100686.00;;;8.10
70050;BMP180;57391;51.306;22.680;2023-03-01T09:55:17;100679.80;;;8.10
70050;BMP180;57391;51.306;22.680;2023-03-01T09:57:53;100674.40;;;8.00
70050;BMP180;57391;51.306;22.680;2023-03-01T10:00:34;100676.40;;;7.90
70050;BMP180;57391;51.306;22.680;2023-03-01T10:03:43;100673.40;;;7.80
70050;BMP180;57391;51.306;22.680;2023-03-01T10:06:20;100676.00;;;7.80
70050;BMP180;57391;51.306;22.680;2023-03-01T10:09:00;100667.80;;;7.72
70050;BMP180;57391;51.306;22.680;2023-03-01T10:11:54;100658.80;;;7.80
70050;BMP180;57391;51.306;22.680;2023-03-01T10:18:20;100662.40;;;8.10
70050;BMP180;57391;51.306;22.680;2023-03-01T10:23:19;100660.40;;;8.50
70050;BMP180;57391;51.306;22.680;2023-03-01T10:28:25;100649.00;;;8.66
70050;BMP180;57391;51.306;22.680;2023-03-01T10:30:56;100647.00;;;8.70
70050;BMP180;57391;51.306;22.680;2023-03-01T10:33:32;100651.80;;;8.78
70050;BMP180;57391;51.306;22.680;2023-03-01T10:36:02;100652.20;;;8.80
70050;BMP180;57391;51.306;22.680;2023-03-01T10:38:48;100644.60;;;8.90
70050;BMP180;57391;51.306;22.680;2023-03-01T10:41:16;100643.60;;;8.90
70050;BMP180;57391;51.306;22.680;2023-03-01T10:43:54;100642.80;;;9.00
70050;BMP180;57391;51.306;22.680;2023-03-01T10:46:29;100644.80;;;9.00
70050;BMP180;57391;51.306;22.680;2023-03-01T10:49:21;100637.00;;;9.00
70050;BMP180;57391;51.306;22.680;2023-03-01T10:51:51;100632.40;;;8.94
70050;BMP180;57391;51.306;22.680;2023-03-01T10:56:51;100631.80;;;8.92
70050;BMP180;57391;51.306;22.680;2023-03-01T10:59:28;100627.60;;;9.00
70050;BMP180;57391;51.306;22.680;2023-03-01T11:02:20;100632.60;;;9.10
70050;BMP180;57391;51.306;22.680;2023-03-01T11:05:03;100623.40;;;9.16
70050;BMP180;57391;51.306;22.680;2023-03-01T11:07:58;100622.80;;;9.10
70050;BMP180;57391;51.306;22.680;2023-03-01T11:10:32;100620.80;;;9.00
70050;BMP180;57391;51.306;22.680;2023-03-01T11:13:17;100618.60;;;8.94
70050;BMP180;57391;51.306;22.680;2023-03-01T11:16:00;100623.80;;;9.00
70050;BMP180;57391;51.306;22.680;2023-03-01T11:18:30;100619.20;;;9.00
70050;BMP180;57391;51.306;22.680;2023-03-01T11:21:01;100621.60;;;9.02
70050;BMP180;57391;51.306;22.680;2023-03-01T11:23:30;100617.80;;;9.10
70050;BMP180;57391;51.306;22.680;2023-03-01T11:26:06;100623.80;;;9.12
70050;BMP180;57391;51.306;22.680;2023-03-01T11:28:40;100625.40;;;9.10
70050;BMP180;57391;51.306;22.680;2023-03-01T11:31:12;100624.40;;;9.10
70050;BMP180;57391;51.306;22.680;2023-03-01T11:33:50;100620.80;;;9.10
70050;BMP180;57391;51.306;22.680;2023-03-01T11:36:44;100623.00;;;9.20
70050;BMP180;57391;51.306;22.680;2023-03-01T11:40:03;100617.60;;;9.20
70050;BMP180;57391;51.306;22.680;2023-03-01T11:45:26;100616.00;;;9.40
70050;BMP180;57391;51.306;22.680;2023-03-01T11:48:22;100612.00;;;9.44
70050;BMP180;57391;51.306;22.680;2023-03-01T11:50:52;100610.60;;;9.40
70050;BMP180;57391;51.306;22.680;2023-03-01T11:53:39;100613.80;;;9.30
70050;BMP180;57391;51.306;22.680;2023-03-01T12:02:21;100610.80;;;9.50
70050;BMP180;57391;51.306;22.680;2023-03-01T12:05:17;100612.00;;;9.50
70050;BMP180;57391;51.306;22.680;2023-03-01T12:08:02;100615.60;;;9.50
70050;BMP180;57391;51.306;22.680;2023-03-01T12:27:51;100600.00;;;9.20
70050;BMP180;57391;51.306;22.680;2023-03-01T12:41:46;100588.00;;;8.90
70050;BMP180;57391;51.306;22.680;2023-03-01T12:50:50;100582.20;;;8.80
70050;BMP180;57391;51.306;22.680;2023-03-01T12:53:31;100583.40;;;8.90
70050;BMP180;57391;51.306;22.680;2023-03-01T12:56:05;100581.00;;;8.90
70050;BMP180;57391;51.306;22.680;2023-03-01T13:04:31;100568.40;;;9.00
70050;BMP180;57391;51.306;22.680;2023-03-01T13:13:27;100570.00;;;9.50
70050;BMP180;57391;51.306;22.680;2023-03-01T13:15:56;100570.20;;;9.60
70050;BMP180;57391;51.306;22.680;2023-03-01T13:20:58;100577.00;;;9.58
70050;BMP180;57391;51.306;22.680;2023-03-01T13:23:34;100573.00;;;9.50
70050;BMP180;57391;51.306;22.680;2023-03-01T13:26:16;100573.60;;;9.40
70050;BMP180;57391;51.306;22.680;2023-03-01T13:33:52;100575.40;;;9.30
70050;BMP180;57391;51.306;22.680;2023-03-01T13:39:26;100569.80;;;9.20
70050;BMP180;57391;51.306;22.680;2023-03-01T13:41:55;100566.80;;;9.10
70050;BMP180;57391;51.306;22.680;2023-03-01T13:44:33;100567.40;;;9.10
70050;BMP180;57391;51.306;22.680;2023-03-01T13:47:18;100560.40;;;9.26
70050;BMP180;57391;51.306;22.680;2023-03-01T13:49:53;100561.20;;;9.40
70050;BMP180;57391;51.306;22.680;2023-03-01T13:52:46;100556.40;;;9.60
70050;BMP180;57391;51.306;22.680;2023-03-01T13:57:53;100556.80;;;9.60
70050;BMP180;57391;51.306;22.680;2023-03-01T14:00:37;100557.60;;;9.60
70050;BMP180;57391;51.306;22.680;2023-03-01T14:03:19;100558.00;;;9.50
70050;BMP180;57391;51.306;22.680;2023-03-01T14:06:14;100561.00;;;9.40
70050;BMP180;57391;51.306;22.680;2023-03-01T14:08:48;100559.40;;;9.40
70050;BMP180;57391;51.306;22.680;2023-03-01T14:14:33;100552.20;;;9.30
70050;BMP180;57391;51.306;22.680;2023-03-01T14:22:52;100544.00;;;9.20
70050;BMP180;57391;51.306;22.680;2023-03-01T14:25:35;100541.00;;;9.10
70050;BMP180;57391;51.306;22.680;2023-03-01T14:28:21;100547.20;;;9.10
70050;BMP180;57391;51.306;22.680;2023-03-01T14:30:54;100540.80;;;9.00
70050;BMP180;57391;51.306;22.680;2023-03-01T14:36:04;100533.40;;;8.90
70050;BMP180;57391;51.306;22.680;2023-03-01T14:38:38;100527.20;;;8.80
70050;BMP180;57391;51.306;22.680;2023-03-01T14:43:50;100521.40;;;8.70
70050;BMP180;57391;51.306;22.680;2023-03-01T14:46:43;100523.00;;;8.60
70050;BMP180;57391;51.306;22.680;2023-03-01T14:51:48;100518.60;;;8.50
70050;BMP180;57391;51.306;22.680;2023-03-01T14:54:52;100520.20;;;8.40
70050;BMP180;57391;51.306;22.680;2023-03-01T14:57:25;100525.00;;;8.30
70050;BMP180;57391;51.306;22.680;2023-03-01T14:59:57;100515.20;;;8.20
70050;BMP180;57391;51.306;22.680;2023-03-01T15:02:27;100516.00;;;8.10
70050;BMP180;57391;51.306;22.680;2023-03-01T15:04:59;100511.20;;;8.00
70050;BMP180;57391;51.306;22.680;2023-03-01T15:07:40;100515.20;;;7.90
70050;BMP180;57391;51.306;22.680;2023-03-01T15:10:20;100513.20;;;7.80
70050;BMP180;57391;51.306;22.680;2023-03-01T15:12:48;100507.40;;;7.64
70050;BMP180;57391;51.306;22.680;2023-03-01T15:18:19;100507.60;;;7.50
70050;BMP180;57391;51.306;22.680;2023-03-01T15:20:49;100505.60;;;7.40
70050;BMP180;57391;51.306;22.680;2023-03-01T15:23:29;100502.20;;;7.30
70050;BMP180;57391;51.306;22.680;2023-03-01T15:25:57;100505.40;;;7.20
70050;BMP180;57391;51.306;22.680;2023-03-01T15:28:27;100498.80;;;7.10
70050;BMP180;57391;51.306;22.680;2023-03-01T15:31:21;100493.00;;;7.00
70050;BMP180;57391;51.306;22.680;2023-03-01T15:33:50;100488.60;;;6.90
70050;BMP180;57391;51.306;22.680;2023-03-01T15:38:59;100485.20;;;6.70
70050;BMP180;57391;51.306;22.680;2023-03-01T15:41:51;100486.60;;;6.68
70050;BMP180;57391;51.306;22.680;2023-03-01T15:44:29;100489.80;;;6.60
70050;BMP180;57391;51.306;22.680;2023-03-01T15:46:57;100493.20;;;6.54
70050;BMP180;57391;51.306;22.680;2023-03-01T15:49:42;100486.00;;;6.50
70050;BMP180;57391;51.306;22.680;2023-03-01T15:52:23;100488.60;;;6.50
70050;BMP180;57391;51.306;22.680;2023-03-01T15:55:04;100474.60;;;6.40
70050;BMP180;57391;51.306;22.680;2023-03-01T15:57:32;100476.20;;;6.34
70050;BMP180;57391;51.306;22.680;2023-03-01T15:59:59;100475.60;;;6.30
70050;BMP180;57391;51.306;22.680;2023-03-01T16:02:28;100474.40;;;6.20
70050;BMP180;57391;51.306;22.680;2023-03-01T16:04:55;100475.20;;;6.20
70050;BMP180;57391;51.306;22.680;2023-03-01T16:07:23;100477.00;;;6.20
70050;BMP180;57391;51.306;22.680;2023-03-01T16:09:50;100469.40;;;6.16
70050;BMP180;57391;51.306;22.680;2023-03-01T16:12:18;100473.60;;;6.10
70050;BMP180;57391;51.306;22.680;2023-03-01T16:14:47;100478.20;;;6.10
70050;BMP180;57391;51.306;22.680;2023-03-01T16:17:17;100478.00;;;6.10
70050;BMP180;57391;51.306;22.680;2023-03-01T16:19:44;100473.20;;;6.00
70050;BMP180;57391;51.306;22.680;2023-03-01T16:22:11;100474.60;;;6.00
70050;BMP180;57391;51.306;22.680;2023-03-01T16:24:38;100473.60;;;5.90